createdAt,value
2019-03-23T00:01:13.449Z,174.50
2019-03-23T00:03:41.760Z,168.10
2019-03-23T00:06:09.970Z,176.10
2019-03-23T00:08:38.194Z,180.83
2019-03-23T00:11:06.400Z,179.27
2019-03-23T00:13:34.633Z,190.43
2019-03-23T00:16:02.844Z,176.17
2019-03-23T00:18:31.069Z,159.30
2019-03-23T00:20:59.280Z,184.47
2019-03-23T00:23:27.508Z,186.50
2019-03-23T00:25:55.718Z,203.27
2019-03-23T00:28:23.960Z,179.90
2019-03-23T00:30:52.170Z,183.50
2019-03-23T00:33:20.383Z,187.20
2019-03-23T00:35:48.594Z,203.70
2019-03-23T00:38:16.819Z,189.63
2019-03-23T00:40:45.032Z,201.27
2019-03-23T00:43:13.262Z,214.90
2019-03-23T00:45:41.482Z,203.47
2019-03-23T00:48:09.688Z,201.00
2019-03-23T00:50:37.912Z,232.00
2019-03-23T00:53:06.130Z,226.47
2019-03-23T00:55:34.360Z,209.87
2019-03-23T00:58:03.031Z,204.70
2019-03-23T01:00:31.257Z,209.07
2019-03-23T01:02:59.472Z,204.27
2019-03-23T01:05:28.161Z,206.70
2019-03-23T01:07:56.376Z,233.00
2019-03-23T01:10:24.607Z,236.43
2019-03-23T01:12:53.708Z,244.37
2019-03-23T01:15:21.936Z,226.07
2019-03-23T01:17:50.146Z,190.37
2019-03-23T01:20:18.371Z,173.50
2019-03-23T01:22:46.580Z,221.90
2019-03-23T01:25:14.795Z,176.80
2019-03-23T01:27:43.027Z,213.93
2019-03-23T01:30:12.978Z,214.20
2019-03-23T01:32:41.203Z,225.60
2019-03-23T01:35:09.414Z,239.43
2019-03-23T01:37:37.645Z,233.77
2019-03-23T01:40:06.894Z,184.40
2019-03-23T01:42:35.119Z,229.77
2019-03-23T01:45:04.098Z,202.07
2019-03-23T01:47:32.319Z,218.30
2019-03-23T01:50:00.529Z,209.00
2019-03-23T01:52:28.749Z,207.47
2019-03-23T01:54:56.970Z,179.97
2019-03-23T01:57:25.198Z,184.77
2019-03-23T01:59:53.407Z,185.67
2019-03-23T02:02:21.638Z,165.67
2019-03-23T02:04:49.854Z,153.70
2019-03-23T02:07:18.084Z,157.67
2019-03-23T02:09:46.298Z,170.37
2019-03-23T02:12:14.522Z,172.23
2019-03-23T02:14:42.731Z,171.53
2019-03-23T02:17:10.954Z,164.53
2019-03-23T02:19:39.166Z,165.40
2019-03-23T02:22:07.392Z,167.53
2019-03-23T02:24:35.600Z,175.73
2019-03-23T02:27:03.828Z,163.03
2019-03-23T02:29:32.050Z,154.20
2019-03-23T02:32:00.273Z,158.40
2019-03-23T02:34:28.488Z,172.97
2019-03-23T02:36:56.706Z,168.70
2019-03-23T02:39:24.940Z,169.60
2019-03-23T02:41:53.144Z,164.27
2019-03-23T02:44:21.608Z,153.20
2019-03-23T02:46:49.837Z,170.47
2019-03-23T02:49:18.052Z,162.57
2019-03-23T02:51:46.283Z,173.00
2019-03-23T02:54:14.489Z,157.80
2019-03-23T02:56:42.719Z,174.37
2019-03-23T02:59:10.935Z,173.33
2019-03-23T03:01:39.141Z,180.73
2019-03-23T03:04:07.367Z,184.47
2019-03-23T03:06:35.583Z,174.73
2019-03-23T03:09:05.172Z,167.97
2019-03-23T03:11:33.387Z,170.53
2019-03-23T03:14:01.608Z,188.07
2019-03-23T03:16:29.827Z,175.37
2019-03-23T03:18:58.077Z,189.27
2019-03-23T03:21:26.343Z,189.17
2019-03-23T03:23:54.511Z,203.23
2019-03-23T03:26:22.739Z,210.83
2019-03-23T03:28:51.418Z,183.27
2019-03-23T03:31:19.659Z,207.73
2019-03-23T03:33:48.116Z,201.10
2019-03-23T03:36:16.345Z,210.20
2019-03-23T03:38:44.641Z,191.70
2019-03-23T03:41:12.873Z,204.17
2019-03-23T03:43:41.312Z,183.20
2019-03-23T03:46:09.522Z,190.23
2019-03-23T03:48:37.831Z,208.33
2019-03-23T03:51:06.056Z,184.13
2019-03-23T03:53:34.289Z,195.20
2019-03-23T03:56:02.543Z,200.50
2019-03-23T03:58:30.719Z,204.37
2019-03-23T04:00:58.942Z,178.60
2019-03-23T04:03:27.159Z,178.53
2019-03-23T04:05:55.401Z,192.30
2019-03-23T04:08:23.624Z,185.10
2019-03-23T04:10:51.825Z,175.27
2019-03-23T04:13:20.048Z,176.47
2019-03-23T04:15:49.406Z,183.40
2019-03-23T04:18:17.655Z,177.87
2019-03-23T04:20:45.867Z,187.47
2019-03-23T04:23:14.088Z,193.07
2019-03-23T04:25:42.771Z,202.63
2019-03-23T04:28:10.985Z,184.43
2019-03-23T04:30:39.215Z,185.07
2019-03-23T04:33:07.435Z,180.13
2019-03-23T04:35:35.645Z,184.07
2019-03-23T04:38:03.878Z,172.07
2019-03-23T04:40:32.079Z,195.53
2019-03-23T04:43:00.313Z,176.30
2019-03-23T04:45:29.843Z,179.47
2019-03-23T04:47:58.049Z,167.87
2019-03-23T04:50:26.279Z,178.63
2019-03-23T04:52:54.493Z,178.40
2019-03-23T04:55:22.730Z,183.03
2019-03-23T04:57:50.950Z,186.97
2019-03-23T05:00:19.808Z,188.87
2019-03-23T05:02:48.033Z,184.00
2019-03-23T05:05:16.246Z,184.50
2019-03-23T05:07:44.469Z,195.63
2019-03-23T05:10:12.691Z,204.30
2019-03-23T05:12:40.918Z,191.07
2019-03-23T05:15:09.129Z,189.47
2019-03-23T05:17:37.360Z,180.97
2019-03-23T05:20:07.808Z,178.93
2019-03-23T05:22:36.024Z,183.90
2019-03-23T05:25:05.177Z,173.17
2019-03-23T05:27:33.395Z,172.20
2019-03-23T05:30:01.697Z,178.17
2019-03-23T05:32:29.907Z,165.23
2019-03-23T05:34:58.142Z,165.83
2019-03-23T05:37:26.342Z,175.80
2019-03-23T05:39:54.562Z,174.90
2019-03-23T05:42:22.772Z,163.77
2019-03-23T05:44:50.997Z,166.17
2019-03-23T05:47:19.211Z,156.50
2019-03-23T05:49:47.921Z,147.93
2019-03-23T05:52:16.130Z,170.87
2019-03-23T05:54:44.361Z,157.70
2019-03-23T05:57:12.575Z,162.87
2019-03-23T05:59:40.787Z,173.13
2019-03-23T06:02:09.008Z,170.47
2019-03-23T06:04:37.219Z,158.70
2019-03-23T06:07:05.454Z,176.73
2019-03-23T06:09:33.660Z,173.73
2019-03-23T06:12:01.874Z,176.73
2019-03-23T06:14:30.099Z,180.20
2019-03-23T06:16:58.319Z,171.17
2019-03-23T06:19:26.556Z,171.27
2019-03-23T06:21:54.766Z,180.70
2019-03-23T06:24:22.978Z,174.40
2019-03-23T06:26:51.208Z,187.40
2019-03-23T06:29:19.420Z,160.10
2019-03-23T06:31:47.638Z,173.83
2019-03-23T06:34:15.855Z,168.30
2019-03-23T06:36:44.082Z,184.27
2019-03-23T06:39:12.293Z,181.73
2019-03-23T06:41:40.527Z,174.30
2019-03-23T06:44:08.738Z,177.40
2019-03-23T06:46:36.947Z,183.43
2019-03-23T06:49:05.441Z,172.17
2019-03-23T06:51:33.652Z,190.83
2019-03-23T06:54:01.863Z,187.30
2019-03-23T06:56:30.071Z,182.93
2019-03-23T06:58:58.756Z,185.13
2019-03-23T07:01:26.969Z,178.60
2019-03-23T07:03:55.198Z,179.97
2019-03-23T07:06:23.405Z,190.57
2019-03-23T07:08:51.624Z,182.73
2019-03-23T07:11:19.835Z,174.27
2019-03-23T07:13:49.253Z,168.03
2019-03-23T07:16:17.456Z,179.73
2019-03-23T07:18:45.676Z,180.03
2019-03-23T07:21:13.890Z,185.50
2019-03-23T07:23:42.113Z,163.67
2019-03-23T07:26:10.341Z,167.10
2019-03-23T07:28:38.560Z,175.60
2019-03-23T07:31:06.769Z,176.77
2019-03-23T07:33:34.989Z,167.17
2019-03-23T07:36:03.200Z,176.33
2019-03-23T07:38:31.424Z,160.53
2019-03-23T07:40:59.635Z,179.27
2019-03-23T07:43:29.331Z,175.50
2019-03-23T07:45:57.540Z,178.20
2019-03-23T07:48:25.777Z,168.70
2019-03-23T07:50:53.985Z,179.90
2019-03-23T07:53:22.196Z,160.73
2019-03-23T07:55:50.414Z,176.27
2019-03-23T07:58:18.619Z,172.40
2019-03-23T08:00:46.843Z,170.60
2019-03-23T08:03:15.303Z,170.97
2019-03-23T08:05:43.523Z,168.83
2019-03-23T08:08:11.730Z,171.50
2019-03-23T08:10:39.952Z,168.17
2019-03-23T08:13:08.198Z,174.50
2019-03-23T08:15:36.392Z,157.40
2019-03-23T08:18:04.603Z,174.80
2019-03-23T08:20:32.816Z,174.03
2019-03-23T08:23:01.044Z,158.73
2019-03-23T08:25:29.261Z,182.20
2019-03-23T08:27:57.486Z,162.10
2019-03-23T08:30:25.698Z,165.13
2019-03-23T08:32:53.929Z,157.30
2019-03-23T08:35:22.147Z,172.20
2019-03-23T08:37:50.355Z,171.50
2019-03-23T08:40:18.570Z,179.07
2019-03-23T08:42:46.783Z,168.67
2019-03-23T08:45:15.011Z,173.43
2019-03-23T08:47:43.220Z,172.43
2019-03-23T08:50:12.310Z,187.97
2019-03-23T08:52:40.515Z,178.37
2019-03-23T08:55:08.739Z,162.23
2019-03-23T08:57:36.952Z,163.47
2019-03-23T09:00:08.545Z,174.17
2019-03-23T09:02:36.752Z,140.47
2019-03-23T09:05:06.604Z,153.43
2019-03-23T09:07:34.819Z,144.37
2019-03-23T09:10:04.278Z,147.57
2019-03-23T09:12:32.484Z,158.03
2019-03-23T09:15:00.699Z,145.03
2019-03-23T09:17:28.916Z,142.47
2019-03-23T09:19:57.138Z,143.53
2019-03-23T09:22:25.350Z,138.50
2019-03-23T09:24:56.906Z,125.30
2019-03-23T09:27:23.504Z,129.67
2019-03-23T09:29:51.728Z,133.63
2019-03-23T09:32:19.943Z,119.80
2019-03-23T09:34:48.163Z,125.17
2019-03-23T09:37:16.377Z,124.13
2019-03-23T09:39:44.595Z,129.83
2019-03-23T09:42:12.804Z,121.63
2019-03-23T09:44:41.026Z,113.37
2019-03-23T09:47:09.237Z,112.33
2019-03-23T09:49:37.458Z,122.87
2019-03-23T09:52:05.684Z,107.30
2019-03-23T09:54:33.916Z,106.17
2019-03-23T09:57:02.133Z,104.33
2019-03-23T09:59:30.339Z,97.00
2019-03-23T10:01:58.569Z,102.40
2019-03-23T10:04:28.416Z,105.70
2019-03-23T10:06:56.630Z,106.93
2019-03-23T10:09:24.840Z,106.97
2019-03-23T10:11:53.076Z,99.50
2019-03-23T10:14:21.280Z,85.97
2019-03-23T10:16:49.496Z,91.07
2019-03-23T10:19:17.716Z,91.33
2019-03-23T10:21:45.931Z,86.17
2019-03-23T10:24:14.189Z,85.60
2019-03-23T10:26:42.398Z,82.43
2019-03-23T10:29:11.095Z,84.80
2019-03-23T10:31:39.322Z,87.73
2019-03-23T10:34:07.605Z,75.73
2019-03-23T10:36:35.833Z,76.70
2019-03-23T10:39:04.990Z,81.47
2019-03-23T10:41:33.209Z,77.23
2019-03-23T10:44:01.418Z,72.43
2019-03-23T10:46:30.702Z,75.10
2019-03-23T10:48:58.912Z,67.77
2019-03-23T10:51:27.123Z,62.90
2019-03-23T10:53:55.342Z,65.27
2019-03-23T10:56:23.557Z,66.97
2019-03-23T10:58:51.795Z,59.70
2019-03-23T11:01:19.989Z,74.53
2019-03-23T11:03:48.207Z,62.40
2019-03-23T11:06:16.429Z,62.90
2019-03-23T11:08:44.637Z,61.40
2019-03-23T11:11:12.868Z,59.03
2019-03-23T11:13:41.076Z,51.80
2019-03-23T11:16:09.344Z,59.37
2019-03-23T11:18:37.877Z,67.83
2019-03-23T11:21:06.120Z,56.67
2019-03-23T11:23:34.332Z,59.83
2019-03-23T11:26:02.555Z,52.07
2019-03-23T11:28:30.766Z,56.67
2019-03-23T11:30:59.126Z,56.47
2019-03-23T11:33:27.337Z,45.00
2019-03-23T11:35:57.951Z,43.10
2019-03-23T11:38:25.501Z,40.90
2019-03-23T11:40:55.263Z,56.13
2019-03-23T11:43:23.625Z,44.47
2019-03-23T11:45:51.854Z,48.00
2019-03-23T11:48:20.066Z,44.53
2019-03-23T11:50:48.295Z,43.23
2019-03-23T11:53:16.507Z,42.30
2019-03-23T11:55:44.726Z,45.57
2019-03-23T11:58:13.014Z,41.37
2019-03-23T12:00:41.224Z,31.33
2019-03-23T12:03:09.436Z,32.33
2019-03-23T12:05:37.645Z,27.17
2019-03-23T12:08:05.875Z,28.43
2019-03-23T12:10:34.088Z,24.10
2019-03-23T12:13:02.302Z,20.87
2019-03-23T12:15:30.511Z,21.03
2019-03-23T12:17:58.721Z,15.90
2019-03-23T12:20:26.952Z,21.40
2019-03-23T12:22:55.425Z,24.83
2019-03-23T12:25:23.741Z,15.47
2019-03-23T12:27:51.956Z,23.67
2019-03-23T12:30:20.354Z,18.40
2019-03-23T12:32:48.579Z,26.83
2019-03-23T12:35:16.810Z,18.23
2019-03-23T12:37:45.310Z,20.20
2019-03-23T12:40:13.768Z,20.40
2019-03-23T12:42:41.992Z,19.10
2019-03-23T12:45:10.642Z,19.50
2019-03-23T12:47:38.868Z,19.03
2019-03-23T12:50:10.791Z,27.30
2019-03-23T12:52:39.000Z,13.83
2019-03-23T12:55:08.061Z,17.33
2019-03-23T12:57:36.352Z,24.30
2019-03-23T13:00:15.322Z,20.37
2019-03-23T13:02:43.526Z,25.57
2019-03-23T13:05:11.729Z,21.07
2019-03-23T13:07:40.519Z,16.80
2019-03-23T13:10:11.731Z,13.60
2019-03-23T13:12:41.582Z,21.93
2019-03-23T13:15:14.715Z,23.03
2019-03-23T13:17:42.942Z,22.60
2019-03-23T13:20:11.538Z,19.33
2019-03-23T13:22:39.712Z,25.43
2019-03-23T13:25:09.548Z,17.63
2019-03-23T13:27:37.837Z,30.40
2019-03-23T13:30:08.948Z,22.90
2019-03-23T13:32:37.163Z,13.03
2019-03-23T13:35:05.391Z,15.30
2019-03-23T13:37:33.601Z,20.53
2019-03-23T13:40:01.808Z,15.13
2019-03-23T13:42:30.027Z,15.10
2019-03-23T13:44:58.227Z,24.93
2019-03-23T13:47:26.450Z,18.03
2019-03-23T13:49:54.658Z,15.37
2019-03-23T13:52:23.350Z,15.07
2019-03-23T13:54:51.558Z,16.83
2019-03-23T13:57:19.768Z,19.37
2019-03-23T13:59:47.995Z,18.63
2019-03-23T14:02:16.203Z,12.17
2019-03-23T14:04:44.424Z,13.67
2019-03-23T14:07:12.629Z,15.60
2019-03-23T14:09:40.848Z,9.83
2019-03-23T14:12:09.055Z,11.93
2019-03-23T14:14:37.524Z,20.20
2019-03-23T14:17:05.737Z,11.53
2019-03-23T14:19:33.960Z,12.27
2019-03-23T14:22:02.158Z,14.97
2019-03-23T14:24:30.379Z,20.90
2019-03-23T14:26:58.588Z,23.13
2019-03-23T14:29:26.810Z,16.40
2019-03-23T14:31:55.012Z,10.37
2019-03-23T14:34:23.232Z,14.83
2019-03-23T14:36:51.434Z,12.10
2019-03-23T14:39:19.656Z,10.73
2019-03-23T14:41:47.873Z,15.30
2019-03-23T14:44:16.096Z,10.10
2019-03-23T14:46:44.310Z,10.03
2019-03-23T14:49:12.515Z,4.43
2019-03-23T14:51:40.733Z,8.43
2019-03-23T14:54:08.946Z,14.13
2019-03-23T14:56:37.165Z,11.87
2019-03-23T14:59:05.457Z,16.17
2019-03-23T15:01:33.692Z,14.03
2019-03-23T15:04:01.901Z,17.50
2019-03-23T15:06:30.112Z,11.20
2019-03-23T15:08:58.334Z,13.97
2019-03-23T15:11:26.538Z,12.50
2019-03-23T15:13:54.758Z,20.23
2019-03-23T15:16:22.967Z,16.33
2019-03-23T15:18:51.200Z,21.33
2019-03-23T15:21:19.409Z,21.90
2019-03-23T15:23:47.614Z,30.53
2019-03-23T15:26:16.572Z,16.83
2019-03-23T15:28:44.783Z,22.73
2019-03-23T15:31:14.637Z,17.17
2019-03-23T15:33:42.845Z,16.23
2019-03-23T15:36:11.057Z,24.43
2019-03-23T15:38:39.262Z,16.23
2019-03-23T15:41:07.466Z,20.33
2019-03-23T15:43:35.780Z,20.00
2019-03-23T15:46:03.983Z,21.10
2019-03-23T15:48:32.193Z,15.73
2019-03-23T15:51:00.414Z,17.27
2019-03-23T15:53:28.623Z,11.90
2019-03-23T15:55:56.839Z,9.13
2019-03-23T15:58:25.047Z,11.50
2019-03-23T16:00:53.307Z,16.13
2019-03-23T16:03:21.483Z,17.70
2019-03-23T16:05:49.692Z,21.47
2019-03-23T16:08:17.911Z,24.00
2019-03-23T16:10:46.115Z,15.93
2019-03-23T16:13:14.343Z,20.47
2019-03-23T16:15:42.619Z,21.83
2019-03-23T16:18:10.841Z,20.00
2019-03-23T16:20:39.055Z,25.83
2019-03-23T16:23:07.867Z,23.43
2019-03-23T16:25:36.058Z,24.20
2019-03-23T16:28:04.275Z,33.10
2019-03-23T16:30:32.645Z,29.70
2019-03-23T16:33:00.869Z,25.67
2019-03-23T16:35:29.070Z,26.37
2019-03-23T16:37:57.283Z,21.20
2019-03-23T16:40:25.484Z,25.50
2019-03-23T16:42:53.705Z,22.00
2019-03-23T16:45:21.908Z,21.80
2019-03-23T16:47:51.754Z,25.43
2019-03-23T16:50:19.952Z,24.33
2019-03-23T16:52:48.171Z,26.93
2019-03-23T16:55:16.373Z,14.27
2019-03-23T16:57:44.581Z,24.37
2019-03-23T17:00:14.623Z,21.70
2019-03-23T17:02:42.846Z,23.93
2019-03-23T17:05:11.046Z,30.00
2019-03-23T17:07:39.260Z,27.40
2019-03-23T17:10:07.469Z,22.30
2019-03-23T17:12:35.762Z,22.10
2019-03-23T17:15:06.964Z,23.20
2019-03-23T17:17:35.257Z,31.37
2019-03-23T17:20:03.532Z,27.60
2019-03-23T17:22:31.735Z,26.73
2019-03-23T17:24:59.957Z,25.60
2019-03-23T17:27:28.164Z,24.23
2019-03-23T17:29:56.388Z,23.37
2019-03-23T17:32:24.592Z,29.13
2019-03-23T17:34:52.814Z,23.33
2019-03-23T17:37:21.011Z,17.30
2019-03-23T17:39:49.232Z,23.13
2019-03-23T17:42:17.442Z,24.33
2019-03-23T17:44:46.287Z,29.17
2019-03-23T17:47:14.435Z,27.53
2019-03-23T17:49:42.651Z,30.90
2019-03-23T17:52:10.852Z,27.73
2019-03-23T17:54:39.063Z,21.40
2019-03-23T17:57:07.583Z,24.00
2019-03-23T17:59:35.810Z,23.87
2019-03-23T18:02:05.635Z,22.40
2019-03-23T18:04:33.838Z,29.40
2019-03-23T18:07:02.052Z,21.27
2019-03-23T18:09:30.250Z,30.20
2019-03-23T18:11:58.472Z,30.57
2019-03-23T18:14:26.672Z,17.90
2019-03-23T18:16:54.889Z,22.43
2019-03-23T18:19:23.088Z,30.63
2019-03-23T18:21:51.302Z,25.73
2019-03-23T18:24:19.505Z,19.53
2019-03-23T18:26:47.720Z,23.63
2019-03-23T18:29:15.929Z,21.07
2019-03-23T18:31:44.154Z,28.73
2019-03-23T18:34:12.359Z,24.10
2019-03-23T18:36:40.575Z,28.63
2019-03-23T18:39:10.254Z,26.23
2019-03-23T18:41:38.479Z,24.83
2019-03-23T18:44:15.791Z,20.90
2019-03-23T18:46:36.627Z,32.50
2019-03-23T18:49:04.831Z,33.67
2019-03-23T18:51:33.054Z,25.93
2019-03-23T18:54:01.262Z,26.97
2019-03-23T18:56:29.483Z,21.23
2019-03-23T18:58:57.685Z,20.43
2019-03-23T19:01:27.379Z,22.80
2019-03-23T19:03:55.582Z,30.47
2019-03-23T19:06:23.781Z,29.43
2019-03-23T19:08:52.004Z,40.90
2019-03-23T19:11:20.201Z,26.17
2019-03-23T19:13:48.422Z,39.40
2019-03-23T19:16:16.615Z,25.97
2019-03-23T19:18:44.839Z,33.83
2019-03-23T19:21:13.039Z,29.93
2019-03-23T19:23:41.265Z,34.53
2019-03-23T19:26:09.474Z,27.70
2019-03-23T19:28:37.674Z,30.63
2019-03-23T19:31:05.895Z,35.63
2019-03-23T19:33:34.108Z,39.37
2019-03-23T19:36:02.332Z,33.47
2019-03-23T19:38:30.532Z,34.63
2019-03-23T19:40:58.754Z,25.47
2019-03-23T19:43:26.959Z,41.93
2019-03-23T19:45:55.162Z,33.97
2019-03-23T19:48:24.857Z,37.73
2019-03-23T19:50:53.053Z,49.37
2019-03-23T19:53:21.278Z,48.50
2019-03-23T19:55:49.489Z,50.60
2019-03-23T19:58:17.709Z,38.37
2019-03-23T20:00:45.999Z,42.30
2019-03-23T20:03:14.220Z,39.93
2019-03-23T20:05:42.423Z,37.63
2019-03-23T20:08:11.464Z,40.13
2019-03-23T20:10:39.673Z,36.80
2019-03-23T20:13:07.883Z,45.10
2019-03-23T20:15:36.109Z,38.43
2019-03-23T20:18:04.583Z,43.47
2019-03-23T20:20:32.818Z,40.77
2019-03-23T20:23:01.013Z,38.37
2019-03-23T20:25:29.243Z,34.90
2019-03-23T20:27:57.451Z,50.97
2019-03-23T20:30:25.666Z,44.63
2019-03-23T20:32:53.879Z,46.50
2019-03-23T20:35:22.090Z,37.20
2019-03-23T20:37:50.301Z,37.67
2019-03-23T20:40:18.514Z,38.57
2019-03-23T20:42:46.743Z,38.23
2019-03-23T20:45:18.207Z,40.43
2019-03-23T20:47:46.407Z,27.53
2019-03-23T20:50:14.625Z,42.63
2019-03-23T20:52:45.235Z,43.90
2019-03-23T20:55:24.399Z,40.07
2019-03-23T20:57:53.234Z,47.07
2019-03-23T21:00:21.450Z,38.00
2019-03-23T21:02:49.915Z,32.40
2019-03-23T21:05:18.138Z,38.20
2019-03-23T21:07:46.326Z,33.83
2019-03-23T21:10:14.526Z,51.07
2019-03-23T21:12:42.731Z,47.53
2019-03-23T21:15:10.930Z,37.33
2019-03-23T21:17:50.678Z,33.57
2019-03-23T21:20:09.074Z,35.63
2019-03-23T21:22:37.968Z,40.90
2019-03-23T21:25:07.787Z,49.77
2019-03-23T21:27:35.989Z,42.97
2019-03-23T21:30:07.256Z,42.37
2019-03-23T21:32:35.594Z,34.90
2019-03-23T21:35:04.539Z,41.90
2019-03-23T21:37:32.747Z,36.43
2019-03-23T21:40:00.957Z,52.63
2019-03-23T21:42:29.171Z,46.60
2019-03-23T21:44:57.366Z,44.50
2019-03-23T21:47:25.591Z,57.57
2019-03-23T21:49:53.801Z,48.13
2019-03-23T21:52:22.005Z,54.87
2019-03-23T21:54:50.235Z,53.33
2019-03-23T21:57:18.458Z,51.43
2019-03-23T21:59:46.683Z,49.63
2019-03-23T22:02:14.902Z,49.13
2019-03-23T22:04:43.382Z,51.83
2019-03-23T22:07:11.591Z,63.00
2019-03-23T22:09:39.810Z,63.17
2019-03-23T22:12:08.020Z,61.60
2019-03-23T22:14:41.505Z,66.47
2019-03-23T22:17:06.197Z,59.50
2019-03-23T22:19:34.401Z,70.73
2019-03-23T22:22:02.660Z,58.57
2019-03-23T22:24:30.876Z,63.20
2019-03-23T22:26:59.101Z,73.67
2019-03-23T22:29:27.307Z,70.07
2019-03-23T22:31:55.531Z,58.30
2019-03-23T22:34:23.742Z,65.70
2019-03-23T22:36:52.985Z,76.33
2019-03-23T22:39:21.211Z,61.50
2019-03-23T22:41:49.425Z,55.37
2019-03-23T22:44:17.633Z,59.93
2019-03-23T22:46:45.841Z,55.67
2019-03-23T22:49:14.059Z,75.27
2019-03-23T22:51:42.271Z,57.80
2019-03-23T22:54:10.485Z,71.20
2019-03-23T22:56:38.947Z,42.70
2019-03-23T22:59:07.169Z,61.77
2019-03-23T23:01:37.003Z,52.53
2019-03-23T23:04:05.230Z,58.63
2019-03-23T23:06:33.433Z,54.43
2019-03-23T23:09:01.666Z,51.00
2019-03-23T23:11:29.875Z,58.70
2019-03-23T23:13:59.387Z,49.73
2019-03-23T23:16:27.611Z,50.63
2019-03-23T23:18:55.819Z,51.50
2019-03-23T23:21:25.644Z,51.83
2019-03-23T23:23:53.928Z,54.77
2019-03-23T23:26:22.158Z,58.40
2019-03-23T23:28:50.441Z,50.97
2019-03-23T23:31:18.663Z,64.57
2019-03-23T23:33:47.192Z,46.93
2019-03-23T23:36:15.687Z,56.70
2019-03-23T23:38:44.150Z,66.33
2019-03-23T23:41:12.639Z,60.33
2019-03-23T23:43:41.260Z,54.27
2019-03-23T23:46:09.903Z,66.40
2019-03-23T23:48:38.091Z,58.80
2019-03-23T23:51:06.550Z,48.80
2019-03-23T23:53:34.841Z,50.83
2019-03-23T23:56:03.046Z,68.47
2019-03-23T23:58:31.502Z,67.63
